sensor_id;sensor_type;location;lat;lon;timestamp;P1;durP1;ratioP1;P2;durP2;ratioP2
79229;SDS011;68663;49.122;17.544;2023-07-20T00:01:34;7.53;;;5.43;;
79229;SDS011;68663;49.122;17.544;2023-07-20T00:04:00;6.75;;;5.10;;
79229;SDS011;68663;49.122;17.544;2023-07-20T00:06:25;5.65;;;5.00;;
79229;SDS011;68663;49.122;17.544;2023-07-20T00:08:55;7.25;;;4.40;;
79229;SDS011;68663;49.122;17.544;2023-07-20T00:11:25;5.82;;;4.47;;
79229;SDS011;68663;49.122;17.544;2023-07-20T00:13:51;7.22;;;5.05;;
79229;SDS011;68663;49.122;17.544;2023-07-20T00:16:16;8.65;;;5.07;;
79229;SDS011;68663;49.122;17.544;2023-07-20T00:18:42;5.95;;;4.63;;
79229;SDS011;68663;49.122;17.544;2023-07-20T00:21:07;6.78;;;4.82;;
79229;SDS011;68663;49.122;17.544;2023-07-20T00:23:33;6.28;;;5.15;;
79229;SDS011;68663;49.122;17.544;2023-07-20T00:25:58;6.13;;;4.55;;
79229;SDS011;68663;49.122;17.544;2023-07-20T00:28:24;5.80;;;4.90;;
79229;SDS011;68663;49.122;17.544;2023-07-20T00:30:49;9.35;;;5.15;;
79229;SDS011;68663;49.122;17.544;2023-07-20T00:33:16;6.35;;;5.07;;
79229;SDS011;68663;49.122;17.544;2023-07-20T00:35:43;8.18;;;4.88;;
79229;SDS011;68663;49.122;17.544;2023-07-20T00:38:08;6.45;;;4.30;;
79229;SDS011;68663;49.122;17.544;2023-07-20T00:40:38;5.88;;;4.72;;
79229;SDS011;68663;49.122;17.544;2023-07-20T00:43:04;5.47;;;4.63;;
79229;SDS011;68663;49.122;17.544;2023-07-20T00:45:29;8.27;;;5.10;;
79229;SDS011;68663;49.122;17.544;2023-07-20T00:47:56;8.82;;;5.20;;
79229;SDS011;68663;49.122;17.544;2023-07-20T00:50:22;6.15;;;4.93;;
79229;SDS011;68663;49.122;17.544;2023-07-20T00:52:49;7.32;;;4.97;;
79229;SDS011;68663;49.122;17.544;2023-07-20T00:55:15;7.15;;;4.85;;
79229;SDS011;68663;49.122;17.544;2023-07-20T00:57:40;8.27;;;4.97;;
79229;SDS011;68663;49.122;17.544;2023-07-20T01:00:06;7.65;;;5.13;;
79229;SDS011;68663;49.122;17.544;2023-07-20T01:02:32;7.18;;;5.13;;
79229;SDS011;68663;49.122;17.544;2023-07-20T01:04:58;8.05;;;4.95;;
79229;SDS011;68663;49.122;17.544;2023-07-20T01:07:28;7.50;;;5.55;;
79229;SDS011;68663;49.122;17.544;2023-07-20T01:10:43;6.95;;;4.95;;
79229;SDS011;68663;49.122;17.544;2023-07-20T01:12:58;5.90;;;4.85;;
79229;SDS011;68663;49.122;17.544;2023-07-20T01:15:26;7.10;;;4.90;;
79229;SDS011;68663;49.122;17.544;2023-07-20T01:17:52;6.22;;;4.70;;
79229;SDS011;68663;49.122;17.544;2023-07-20T01:20:18;6.35;;;4.70;;
79229;SDS011;68663;49.122;17.544;2023-07-20T01:25:48;9.70;;;5.68;;
79229;SDS011;68663;49.122;17.544;2023-07-20T01:33:48;7.22;;;4.80;;
79229;SDS011;68663;49.122;17.544;2023-07-20T01:36:16;6.20;;;4.63;;
79229;SDS011;68663;49.122;17.544;2023-07-20T01:38:43;10.07;;;5.57;;
79229;SDS011;68663;49.122;17.544;2023-07-20T01:41:09;6.93;;;4.93;;
79229;SDS011;68663;49.122;17.544;2023-07-20T01:43:36;5.28;;;4.38;;
79229;SDS011;68663;49.122;17.544;2023-07-20T01:46:01;6.57;;;5.00;;
79229;SDS011;68663;49.122;17.544;2023-07-20T01:48:27;6.78;;;4.47;;
79229;SDS011;68663;49.122;17.544;2023-07-20T01:50:52;6.13;;;4.85;;
79229;SDS011;68663;49.122;17.544;2023-07-20T01:53:17;5.28;;;4.25;;
79229;SDS011;68663;49.122;17.544;2023-07-20T01:55:43;6.88;;;4.90;;
79229;SDS011;68663;49.122;17.544;2023-07-20T01:58:08;7.00;;;4.93;;
79229;SDS011;68663;49.122;17.544;2023-07-20T02:03:52;6.38;;;4.70;;
79229;SDS011;68663;49.122;17.544;2023-07-20T02:06:18;6.38;;;4.70;;
79229;SDS011;68663;49.122;17.544;2023-07-20T02:08:43;6.82;;;5.10;;
79229;SDS011;68663;49.122;17.544;2023-07-20T02:11:08;7.77;;;5.10;;
79229;SDS011;68663;49.122;17.544;2023-07-20T02:13:34;7.45;;;5.13;;
79229;SDS011;68663;49.122;17.544;2023-07-20T02:16:00;8.30;;;5.65;;
79229;SDS011;68663;49.122;17.544;2023-07-20T02:18:25;7.82;;;5.25;;
79229;SDS011;68663;49.122;17.544;2023-07-20T02:20:52;5.63;;;4.88;;
79229;SDS011;68663;49.122;17.544;2023-07-20T02:23:19;6.88;;;5.22;;
79229;SDS011;68663;49.122;17.544;2023-07-20T02:25:44;6.03;;;4.95;;
79229;SDS011;68663;49.122;17.544;2023-07-20T02:28:10;7.28;;;5.32;;
79229;SDS011;68663;49.122;17.544;2023-07-20T02:30:38;8.07;;;4.95;;
79229;SDS011;68663;49.122;17.544;2023-07-20T02:33:06;7.30;;;4.82;;
79229;SDS011;68663;49.122;17.544;2023-07-20T02:35:32;8.48;;;5.45;;
79229;SDS011;68663;49.122;17.544;2023-07-20T02:37:58;7.28;;;5.13;;
79229;SDS011;68663;49.122;17.544;2023-07-20T02:40:23;6.57;;;4.88;;
79229;SDS011;68663;49.122;17.544;2023-07-20T02:42:49;6.28;;;4.70;;
79229;SDS011;68663;49.122;17.544;2023-07-20T02:45:14;7.82;;;5.00;;
79229;SDS011;68663;49.122;17.544;2023-07-20T02:47:40;4.85;;;4.25;;
79229;SDS011;68663;49.122;17.544;2023-07-20T02:50:07;6.75;;;4.43;;
79229;SDS011;68663;49.122;17.544;2023-07-20T02:52:33;6.43;;;4.80;;
79229;SDS011;68663;49.122;17.544;2023-07-20T02:54:58;8.70;;;5.05;;
79229;SDS011;68663;49.122;17.544;2023-07-20T02:57:24;6.63;;;5.15;;
79229;SDS011;68663;49.122;17.544;2023-07-20T02:59:50;6.65;;;5.05;;
79229;SDS011;68663;49.122;17.544;2023-07-20T03:02:15;6.78;;;5.20;;
79229;SDS011;68663;49.122;17.544;2023-07-20T03:04:40;7.57;;;4.47;;
79229;SDS011;68663;49.122;17.544;2023-07-20T03:07:06;7.03;;;5.10;;
79229;SDS011;68663;49.122;17.544;2023-07-20T03:09:32;6.43;;;4.82;;
79229;SDS011;68663;49.122;17.544;2023-07-20T03:11:58;6.65;;;4.97;;
79229;SDS011;68663;49.122;17.544;2023-07-20T03:14:23;7.47;;;4.53;;
79229;SDS011;68663;49.122;17.544;2023-07-20T03:16:49;7.68;;;4.30;;
79229;SDS011;68663;49.122;17.544;2023-07-20T03:19:14;5.32;;;4.22;;
79229;SDS011;68663;49.122;17.544;2023-07-20T03:21:40;6.88;;;4.00;;
79229;SDS011;68663;49.122;17.544;2023-07-20T03:24:06;6.82;;;4.70;;
79229;SDS011;68663;49.122;17.544;2023-07-20T03:26:33;5.53;;;4.22;;
79229;SDS011;68663;49.122;17.544;2023-07-20T03:28:59;8.32;;;4.63;;
79229;SDS011;68663;49.122;17.544;2023-07-20T03:31:24;5.82;;;4.15;;
79229;SDS011;68663;49.122;17.544;2023-07-20T03:33:50;6.18;;;4.57;;
79229;SDS011;68663;49.122;17.544;2023-07-20T03:36:15;6.22;;;3.85;;
79229;SDS011;68663;49.122;17.544;2023-07-20T03:38:41;6.37;;;4.50;;
79229;SDS011;68663;49.122;17.544;2023-07-20T03:41:06;5.90;;;4.13;;
79229;SDS011;68663;49.122;17.544;2023-07-20T03:43:31;8.50;;;4.18;;
79229;SDS011;68663;49.122;17.544;2023-07-20T03:45:57;5.93;;;4.13;;
79229;SDS011;68663;49.122;17.544;2023-07-20T03:48:23;7.93;;;4.13;;
79229;SDS011;68663;49.122;17.544;2023-07-20T03:50:49;6.78;;;4.07;;
79229;SDS011;68663;49.122;17.544;2023-07-20T03:53:17;7.32;;;4.40;;
79229;SDS011;68663;49.122;17.544;2023-07-20T03:55:46;6.80;;;4.70;;
79229;SDS011;68663;49.122;17.544;2023-07-20T03:58:12;7.50;;;4.35;;
79229;SDS011;68663;49.122;17.544;2023-07-20T04:00:38;6.65;;;4.15;;
79229;SDS011;68663;49.122;17.544;2023-07-20T04:03:03;5.47;;;3.97;;
79229;SDS011;68663;49.122;17.544;2023-07-20T04:05:29;8.15;;;5.05;;
79229;SDS011;68663;49.122;17.544;2023-07-20T04:07:55;7.50;;;4.32;;
79229;SDS011;68663;49.122;17.544;2023-07-20T04:10:20;9.00;;;5.05;;
79229;SDS011;68663;49.122;17.544;2023-07-20T04:12:45;8.90;;;4.70;;
79229;SDS011;68663;49.122;17.544;2023-07-20T04:17:39;5.60;;;4.47;;
79229;SDS011;68663;49.122;17.544;2023-07-20T04:20:06;8.15;;;4.45;;
79229;SDS011;68663;49.122;17.544;2023-07-20T04:22:32;8.60;;;4.38;;
79229;SDS011;68663;49.122;17.544;2023-07-20T04:24:58;6.28;;;3.97;;
79229;SDS011;68663;49.122;17.544;2023-07-20T04:27:23;7.77;;;5.00;;
79229;SDS011;68663;49.122;17.544;2023-07-20T04:29:48;6.85;;;4.68;;
79229;SDS011;68663;49.122;17.544;2023-07-20T04:32:14;7.45;;;4.30;;
79229;SDS011;68663;49.122;17.544;2023-07-20T04:34:39;7.70;;;5.18;;
79229;SDS011;68663;49.122;17.544;2023-07-20T04:37:05;6.38;;;4.35;;
79229;SDS011;68663;49.122;17.544;2023-07-20T04:39:32;6.10;;;5.10;;
79229;SDS011;68663;49.122;17.544;2023-07-20T04:41:57;8.82;;;4.93;;
79229;SDS011;68663;49.122;17.544;2023-07-20T04:44:23;6.60;;;4.97;;
79229;SDS011;68663;49.122;17.544;2023-07-20T04:46:48;7.57;;;4.97;;
79229;SDS011;68663;49.122;17.544;2023-07-20T04:49:14;7.63;;;4.45;;
79229;SDS011;68663;49.122;17.544;2023-07-20T04:51:40;8.48;;;4.75;;
79229;SDS011;68663;49.122;17.544;2023-07-20T04:54:05;9.48;;;4.78;;
79229;SDS011;68663;49.122;17.544;2023-07-20T04:56:30;6.72;;;4.82;;
79229;SDS011;68663;49.122;17.544;2023-07-20T04:58:56;8.05;;;4.72;;
79229;SDS011;68663;49.122;17.544;2023-07-20T05:01:22;11.32;;;5.00;;
79229;SDS011;68663;49.122;17.544;2023-07-20T05:03:48;8.02;;;4.70;;
79229;SDS011;68663;49.122;17.544;2023-07-20T05:06:14;7.15;;;4.78;;
79229;SDS011;68663;49.122;17.544;2023-07-20T05:08:39;10.48;;;5.15;;
79229;SDS011;68663;49.122;17.544;2023-07-20T05:11:05;9.70;;;5.50;;
79229;SDS011;68663;49.122;17.544;2023-07-20T05:13:30;9.30;;;4.70;;
79229;SDS011;68663;49.122;17.544;2023-07-20T05:15:56;7.35;;;5.15;;
79229;SDS011;68663;49.122;17.544;2023-07-20T05:18:21;8.77;;;4.88;;
79229;SDS011;68663;49.122;17.544;2023-07-20T05:20:48;13.02;;;4.68;;
79229;SDS011;68663;49.122;17.544;2023-07-20T05:23:13;9.55;;;5.30;;
79229;SDS011;68663;49.122;17.544;2023-07-20T05:25:39;9.35;;;4.18;;
79229;SDS011;68663;49.122;17.544;2023-07-20T05:28:06;6.35;;;5.18;;
79229;SDS011;68663;49.122;17.544;2023-07-20T05:30:31;7.63;;;4.88;;
79229;SDS011;68663;49.122;17.544;2023-07-20T05:32:57;6.70;;;4.50;;
79229;SDS011;68663;49.122;17.544;2023-07-20T05:35:22;11.18;;;5.28;;
79229;SDS011;68663;49.122;17.544;2023-07-20T05:37:48;10.45;;;4.80;;
79229;SDS011;68663;49.122;17.544;2023-07-20T05:40:14;9.27;;;4.63;;
79229;SDS011;68663;49.122;17.544;2023-07-20T05:42:43;7.43;;;4.93;;
79229;SDS011;68663;49.122;17.544;2023-07-20T05:45:09;8.77;;;5.10;;
79229;SDS011;68663;49.122;17.544;2023-07-20T05:47:35;8.30;;;4.88;;
79229;SDS011;68663;49.122;17.544;2023-07-20T05:50:00;7.38;;;4.28;;
79229;SDS011;68663;49.122;17.544;2023-07-20T05:52:26;9.65;;;4.40;;
79229;SDS011;68663;49.122;17.544;2023-07-20T05:54:51;11.70;;;4.87;;
79229;SDS011;68663;49.122;17.544;2023-07-20T05:57:16;9.98;;;4.70;;
79229;SDS011;68663;49.122;17.544;2023-07-20T05:59:42;7.25;;;4.00;;
79229;SDS011;68663;49.122;17.544;2023-07-20T06:02:09;7.22;;;4.28;;
79229;SDS011;68663;49.122;17.544;2023-07-20T06:04:35;6.13;;;4.10;;
79229;SDS011;68663;49.122;17.544;2023-07-20T06:07:01;7.50;;;4.35;;
79229;SDS011;68663;49.122;17.544;2023-07-20T06:09:27;8.88;;;4.00;;
79229;SDS011;68663;49.122;17.544;2023-07-20T06:11:53;11.07;;;4.40;;
79229;SDS011;68663;49.122;17.544;2023-07-20T06:14:18;6.07;;;3.97;;
79229;SDS011;68663;49.122;17.544;2023-07-20T06:16:44;4.55;;;4.00;;
79229;SDS011;68663;49.122;17.544;2023-07-20T06:19:09;6.00;;;4.18;;
79229;SDS011;68663;49.122;17.544;2023-07-20T06:21:37;6.85;;;4.28;;
79229;SDS011;68663;49.122;17.544;2023-07-20T06:24:03;4.47;;;3.95;;
79229;SDS011;68663;49.122;17.544;2023-07-20T06:26:29;6.80;;;4.40;;
79229;SDS011;68663;49.122;17.544;2023-07-20T06:28:55;6.07;;;4.30;;
79229;SDS011;68663;49.122;17.544;2023-07-20T06:31:21;5.00;;;4.10;;
79229;SDS011;68663;49.122;17.544;2023-07-20T06:33:46;9.02;;;4.18;;
79229;SDS011;68663;49.122;17.544;2023-07-20T06:36:12;6.27;;;4.23;;
79229;SDS011;68663;49.122;17.544;2023-07-20T06:38:37;6.45;;;4.18;;
79229;SDS011;68663;49.122;17.544;2023-07-20T06:41:03;6.50;;;4.32;;
79229;SDS011;68663;49.122;17.544;2023-07-20T06:43:29;5.75;;;3.90;;
79229;SDS011;68663;49.122;17.544;2023-07-20T06:45:54;8.35;;;4.20;;
79229;SDS011;68663;49.122;17.544;2023-07-20T06:48:20;7.85;;;4.57;;
79229;SDS011;68663;49.122;17.544;2023-07-20T06:50:46;5.20;;;4.03;;
79229;SDS011;68663;49.122;17.544;2023-07-20T06:53:12;5.82;;;4.13;;
79229;SDS011;68663;49.122;17.544;2023-07-20T06:55:38;4.75;;;3.55;;
79229;SDS011;68663;49.122;17.544;2023-07-20T06:58:03;5.25;;;3.90;;
79229;SDS011;68663;49.122;17.544;2023-07-20T07:00:29;5.25;;;3.85;;
79229;SDS011;68663;49.122;17.544;2023-07-20T07:02:54;4.55;;;3.50;;
79229;SDS011;68663;49.122;17.544;2023-07-20T07:05:20;5.43;;;3.57;;
79229;SDS011;68663;49.122;17.544;2023-07-20T07:07:46;5.95;;;4.25;;
79229;SDS011;68663;49.122;17.544;2023-07-20T07:10:12;5.53;;;4.40;;
79229;SDS011;68663;49.122;17.544;2023-07-20T07:12:37;4.18;;;3.50;;
79229;SDS011;68663;49.122;17.544;2023-07-20T07:15:03;4.38;;;3.58;;
79229;SDS011;68663;49.122;17.544;2023-07-20T07:17:31;4.10;;;3.47;;
79229;SDS011;68663;49.122;17.544;2023-07-20T07:19:58;5.00;;;3.30;;
79229;SDS011;68663;49.122;17.544;2023-07-20T07:22:23;4.03;;;3.38;;
79229;SDS011;68663;49.122;17.544;2023-07-20T07:24:48;4.90;;;3.35;;
79229;SDS011;68663;49.122;17.544;2023-07-20T07:27:14;4.18;;;3.33;;
79229;SDS011;68663;49.122;17.544;2023-07-20T07:29:42;5.72;;;3.90;;
79229;SDS011;68663;49.122;17.544;2023-07-20T07:32:11;5.05;;;3.55;;
79229;SDS011;68663;49.122;17.544;2023-07-20T07:34:37;5.55;;;3.78;;
79229;SDS011;68663;49.122;17.544;2023-07-20T07:37:03;5.10;;;3.72;;
79229;SDS011;68663;49.122;17.544;2023-07-20T07:39:30;5.38;;;3.80;;
79229;SDS011;68663;49.122;17.544;2023-07-20T07:41:55;5.20;;;3.58;;
79229;SDS011;68663;49.122;17.544;2023-07-20T07:44:21;3.85;;;3.42;;
79229;SDS011;68663;49.122;17.544;2023-07-20T07:46:47;3.55;;;3.00;;
79229;SDS011;68663;49.122;17.544;2023-07-20T07:49:12;9.80;;;3.70;;
79229;SDS011;68663;49.122;17.544;2023-07-20T07:51:38;4.80;;;3.50;;
79229;SDS011;68663;49.122;17.544;2023-07-20T07:54:03;5.00;;;3.45;;
79229;SDS011;68663;49.122;17.544;2023-07-20T07:56:29;4.32;;;3.28;;
79229;SDS011;68663;49.122;17.544;2023-07-20T07:58:55;5.75;;;3.03;;
79229;SDS011;68663;49.122;17.544;2023-07-20T08:01:20;4.07;;;3.57;;
79229;SDS011;68663;49.122;17.544;2023-07-20T08:03:45;4.38;;;3.28;;
79229;SDS011;68663;49.122;17.544;2023-07-20T08:06:12;3.70;;;3.13;;
79229;SDS011;68663;49.122;17.544;2023-07-20T08:08:38;5.38;;;3.42;;
79229;SDS011;68663;49.122;17.544;2023-07-20T08:11:04;3.75;;;3.20;;
79229;SDS011;68663;49.122;17.544;2023-07-20T08:13:30;3.67;;;3.10;;
79229;SDS011;68663;49.122;17.544;2023-07-20T08:15:56;3.42;;;3.05;;
79229;SDS011;68663;49.122;17.544;2023-07-20T08:18:21;4.32;;;3.67;;
79229;SDS011;68663;49.122;17.544;2023-07-20T08:20:47;4.45;;;3.03;;
79229;SDS011;68663;49.122;17.544;2023-07-20T08:23:14;3.65;;;3.13;;
79229;SDS011;68663;49.122;17.544;2023-07-20T08:25:39;4.10;;;3.28;;
79229;SDS011;68663;49.122;17.544;2023-07-20T08:28:09;4.75;;;3.15;;
79229;SDS011;68663;49.122;17.544;2023-07-20T08:30:45;3.70;;;3.13;;
79229;SDS011;68663;49.122;17.544;2023-07-20T08:33:16;3.85;;;3.22;;
79229;SDS011;68663;49.122;17.544;2023-07-20T08:35:44;4.00;;;3.53;;
79229;SDS011;68663;49.122;17.544;2023-07-20T08:38:09;4.00;;;3.28;;
79229;SDS011;68663;49.122;17.544;2023-07-20T08:40:41;5.13;;;3.40;;
79229;SDS011;68663;49.122;17.544;2023-07-20T08:43:10;3.30;;;2.65;;
79229;SDS011;68663;49.122;17.544;2023-07-20T08:45:35;3.58;;;3.03;;
79229;SDS011;68663;49.122;17.544;2023-07-20T08:48:03;3.83;;;3.25;;
79229;SDS011;68663;49.122;17.544;2023-07-20T08:50:30;3.83;;;3.00;;
79229;SDS011;68663;49.122;17.544;2023-07-20T08:52:57;3.60;;;3.13;;
79229;SDS011;68663;49.122;17.544;2023-07-20T08:55:24;5.07;;;3.33;;
79229;SDS011;68663;49.122;17.544;2023-07-20T08:57:53;4.30;;;3.75;;
79229;SDS011;68663;49.122;17.544;2023-07-20T09:00:20;3.90;;;3.05;;
79229;SDS011;68663;49.122;17.544;2023-07-20T09:02:48;3.80;;;3.15;;
79229;SDS011;68663;49.122;17.544;2023-07-20T09:05:16;4.53;;;3.35;;
79229;SDS011;68663;49.122;17.544;2023-07-20T09:07:42;3.65;;;3.05;;
79229;SDS011;68663;49.122;17.544;2023-07-20T09:10:08;3.42;;;3.00;;
79229;SDS011;68663;49.122;17.544;2023-07-20T09:12:41;3.88;;;3.45;;
79229;SDS011;68663;49.122;17.544;2023-07-20T09:15:08;3.38;;;2.88;;
79229;SDS011;68663;49.122;17.544;2023-07-20T09:17:34;3.53;;;3.22;;
79229;SDS011;68663;49.122;17.544;2023-07-20T09:20:06;3.97;;;3.00;;
79229;SDS011;68663;49.122;17.544;2023-07-20T09:22:34;3.28;;;2.75;;
79229;SDS011;68663;49.122;17.544;2023-07-20T09:25:00;4.43;;;2.60;;
79229;SDS011;68663;49.122;17.544;2023-07-20T09:27:34;3.45;;;2.97;;
79229;SDS011;68663;49.122;17.544;2023-07-20T09:30:02;3.30;;;2.65;;
79229;SDS011;68663;49.122;17.544;2023-07-20T09:32:28;4.18;;;3.13;;
79229;SDS011;68663;49.122;17.544;2023-07-20T09:34:54;3.60;;;2.90;;
79229;SDS011;68663;49.122;17.544;2023-07-20T09:37:23;3.15;;;2.58;;
79229;SDS011;68663;49.122;17.544;2023-07-20T09:39:51;3.70;;;3.17;;
79229;SDS011;68663;49.122;17.544;2023-07-20T09:42:18;3.55;;;2.97;;
79229;SDS011;68663;49.122;17.544;2023-07-20T09:44:44;4.30;;;3.05;;
79229;SDS011;68663;49.122;17.544;2023-07-20T09:47:09;3.53;;;2.95;;
79229;SDS011;68663;49.122;17.544;2023-07-20T09:49:41;3.45;;;2.80;;
79229;SDS011;68663;49.122;17.544;2023-07-20T09:52:10;3.55;;;2.78;;
79229;SDS011;68663;49.122;17.544;2023-07-20T09:54:37;3.47;;;2.90;;
79229;SDS011;68663;49.122;17.544;2023-07-20T09:57:04;3.85;;;2.90;;
79229;SDS011;68663;49.122;17.544;2023-07-20T10:01:58;3.40;;;2.92;;
79229;SDS011;68663;49.122;17.544;2023-07-20T10:04:24;3.25;;;2.67;;
79229;SDS011;68663;49.122;17.544;2023-07-20T10:06:51;3.72;;;2.95;;
79229;SDS011;68663;49.122;17.544;2023-07-20T10:09:19;3.63;;;2.90;;
79229;SDS011;68663;49.122;17.544;2023-07-20T10:11:49;3.60;;;2.72;;
79229;SDS011;68663;49.122;17.544;2023-07-20T10:14:16;3.92;;;2.97;;
79229;SDS011;68663;49.122;17.544;2023-07-20T10:16:51;3.78;;;2.83;;
79229;SDS011;68663;49.122;17.544;2023-07-20T10:19:23;3.50;;;2.88;;
79229;SDS011;68663;49.122;17.544;2023-07-20T10:22:10;2.97;;;2.40;;
79229;SDS011;68663;49.122;17.544;2023-07-20T10:24:39;3.35;;;2.92;;
79229;SDS011;68663;49.122;17.544;2023-07-20T10:27:06;3.30;;;2.90;;
79229;SDS011;68663;49.122;17.544;2023-07-20T10:29:32;3.10;;;2.65;;
79229;SDS011;68663;49.122;17.544;2023-07-20T10:32:00;3.38;;;2.75;;
79229;SDS011;68663;49.122;17.544;2023-07-20T10:34:26;3.78;;;3.00;;
79229;SDS011;68663;49.122;17.544;2023-07-20T10:36:52;3.58;;;3.17;;
79229;SDS011;68663;49.122;17.544;2023-07-20T10:39:22;3.55;;;2.67;;
79229;SDS011;68663;49.122;17.544;2023-07-20T10:42:02;3.20;;;2.70;;
79229;SDS011;68663;49.122;17.544;2023-07-20T10:44:37;3.22;;;2.80;;
79229;SDS011;68663;49.122;17.544;2023-07-20T10:47:09;3.25;;;2.63;;
79229;SDS011;68663;49.122;17.544;2023-07-20T10:49:39;2.90;;;2.60;;
79229;SDS011;68663;49.122;17.544;2023-07-20T10:52:36;3.25;;;2.75;;
79229;SDS011;68663;49.122;17.544;2023-07-20T10:55:15;3.45;;;2.67;;
79229;SDS011;68663;49.122;17.544;2023-07-20T10:57:41;3.20;;;2.63;;
79229;SDS011;68663;49.122;17.544;2023-07-20T11:00:13;3.05;;;2.75;;
79229;SDS011;68663;49.122;17.544;2023-07-20T11:02:46;3.17;;;2.80;;
79229;SDS011;68663;49.122;17.544;2023-07-20T11:07:57;2.95;;;2.38;;
79229;SDS011;68663;49.122;17.544;2023-07-20T11:10:23;3.30;;;2.67;;
79229;SDS011;68663;49.122;17.544;2023-07-20T11:13:15;2.88;;;2.22;;
79229;SDS011;68663;49.122;17.544;2023-07-20T11:16:00;3.83;;;2.92;;
79229;SDS011;68663;49.122;17.544;2023-07-20T11:18:28;3.22;;;2.72;;
79229;SDS011;68663;49.122;17.544;2023-07-20T11:20:54;3.10;;;2.50;;
79229;SDS011;68663;49.122;17.544;2023-07-20T11:23:20;2.90;;;2.35;;
79229;SDS011;68663;49.122;17.544;2023-07-20T11:25:46;3.17;;;2.70;;
79229;SDS011;68663;49.122;17.544;2023-07-20T11:28:12;2.53;;;2.30;;
79229;SDS011;68663;49.122;17.544;2023-07-20T11:30:38;4.15;;;2.80;;
79229;SDS011;68663;49.122;17.544;2023-07-20T11:33:04;3.50;;;2.30;;
79229;SDS011;68663;49.122;17.544;2023-07-20T11:35:30;3.08;;;2.42;;
79229;SDS011;68663;49.122;17.544;2023-07-20T11:37:59;2.75;;;2.03;;
79229;SDS011;68663;49.122;17.544;2023-07-20T11:40:25;2.72;;;2.40;;
79229;SDS011;68663;49.122;17.544;2023-07-20T11:42:50;3.45;;;2.90;;
79229;SDS011;68663;49.122;17.544;2023-07-20T11:45:17;3.28;;;2.38;;
79229;SDS011;68663;49.122;17.544;2023-07-20T11:47:44;2.95;;;2.33;;
79229;SDS011;68663;49.122;17.544;2023-07-20T11:50:10;3.00;;;2.50;;
79229;SDS011;68663;49.122;17.544;2023-07-20T11:52:36;2.90;;;2.42;;
79229;SDS011;68663;49.122;17.544;2023-07-20T11:55:02;2.78;;;2.47;;
79229;SDS011;68663;49.122;17.544;2023-07-20T11:57:28;3.20;;;2.65;;
79229;SDS011;68663;49.122;17.544;2023-07-20T11:59:57;2.20;;;2.00;;
79229;SDS011;68663;49.122;17.544;2023-07-20T12:02:27;2.95;;;2.40;;
79229;SDS011;68663;49.122;17.544;2023-07-20T12:04:53;3.20;;;2.50;;
79229;SDS011;68663;49.122;17.544;2023-07-20T12:07:19;2.80;;;2.50;;
79229;SDS011;68663;49.122;17.544;2023-07-20T12:09:45;2.53;;;2.33;;
79229;SDS011;68663;49.122;17.544;2023-07-20T12:12:40;2.85;;;2.50;;
79229;SDS011;68663;49.122;17.544;2023-07-20T12:17:58;2.70;;;2.50;;
79229;SDS011;68663;49.122;17.544;2023-07-20T12:23:10;2.60;;;2.20;;
79229;SDS011;68663;49.122;17.544;2023-07-20T12:25:40;2.40;;;2.15;;
79229;SDS011;68663;49.122;17.544;2023-07-20T12:28:13;2.70;;;2.40;;
79229;SDS011;68663;49.122;17.544;2023-07-20T12:30:40;3.75;;;2.50;;
79229;SDS011;68663;49.122;17.544;2023-07-20T12:33:07;2.72;;;2.28;;
79229;SDS011;68663;49.122;17.544;2023-07-20T12:35:33;3.35;;;2.20;;
79229;SDS011;68663;49.122;17.544;2023-07-20T12:37:59;2.72;;;2.30;;
79229;SDS011;68663;49.122;17.544;2023-07-20T12:40:25;2.53;;;2.20;;
79229;SDS011;68663;49.122;17.544;2023-07-20T12:42:50;2.88;;;2.20;;
79229;SDS011;68663;49.122;17.544;2023-07-20T12:45:16;2.72;;;2.13;;
79229;SDS011;68663;49.122;17.544;2023-07-20T12:47:41;2.22;;;1.98;;
79229;SDS011;68663;49.122;17.544;2023-07-20T12:50:09;2.78;;;2.42;;
79229;SDS011;68663;49.122;17.544;2023-07-20T12:52:38;2.85;;;2.33;;
79229;SDS011;68663;49.122;17.544;2023-07-20T12:55:05;2.83;;;2.17;;
79229;SDS011;68663;49.122;17.544;2023-07-20T12:57:32;3.05;;;2.50;;
79229;SDS011;68663;49.122;17.544;2023-07-20T13:00:02;3.00;;;2.45;;
79229;SDS011;68663;49.122;17.544;2023-07-20T13:02:30;2.78;;;2.25;;
79229;SDS011;68663;49.122;17.544;2023-07-20T13:04:57;3.28;;;2.40;;
79229;SDS011;68663;49.122;17.544;2023-07-20T13:07:32;2.70;;;2.42;;
79229;SDS011;68663;49.122;17.544;2023-07-20T13:10:02;2.88;;;2.25;;
79229;SDS011;68663;49.122;17.544;2023-07-20T13:12:29;2.50;;;2.10;;
79229;SDS011;68663;49.122;17.544;2023-07-20T13:14:56;3.28;;;2.47;;
79229;SDS011;68663;49.122;17.544;2023-07-20T13:17:24;3.03;;;2.05;;
79229;SDS011;68663;49.122;17.544;2023-07-20T13:19:50;2.85;;;2.30;;
79229;SDS011;68663;49.122;17.544;2023-07-20T13:22:15;2.75;;;2.40;;
79229;SDS011;68663;49.122;17.544;2023-07-20T13:24:41;2.63;;;2.30;;
79229;SDS011;68663;49.122;17.544;2023-07-20T13:27:07;2.60;;;2.17;;
79229;SDS011;68663;49.122;17.544;2023-07-20T13:29:32;2.75;;;2.42;;
79229;SDS011;68663;49.122;17.544;2023-07-20T13:31:58;2.30;;;2.10;;
79229;SDS011;68663;49.122;17.544;2023-07-20T13:34:25;2.70;;;2.28;;
79229;SDS011;68663;49.122;17.544;2023-07-20T13:36:50;2.58;;;2.10;;
79229;SDS011;68663;49.122;17.544;2023-07-20T13:39:16;2.60;;;2.17;;
79229;SDS011;68663;49.122;17.544;2023-07-20T13:41:41;2.40;;;2.08;;
79229;SDS011;68663;49.122;17.544;2023-07-20T13:44:07;2.20;;;2.00;;
79229;SDS011;68663;49.122;17.544;2023-07-20T13:46:33;2.70;;;2.20;;
79229;SDS011;68663;49.122;17.544;2023-07-20T13:48:59;2.28;;;1.95;;
79229;SDS011;68663;49.122;17.544;2023-07-20T13:51:24;2.78;;;2.20;;
79229;SDS011;68663;49.122;17.544;2023-07-20T13:53:50;3.25;;;2.03;;
79229;SDS011;68663;49.122;17.544;2023-07-20T13:56:15;2.90;;;2.17;;
79229;SDS011;68663;49.122;17.544;2023-07-20T13:58:41;2.88;;;2.25;;
79229;SDS011;68663;49.122;17.544;2023-07-20T14:01:07;2.50;;;2.10;;
79229;SDS011;68663;49.122;17.544;2023-07-20T14:03:32;2.88;;;2.22;;
79229;SDS011;68663;49.122;17.544;2023-07-20T14:05:58;2.53;;;2.05;;
79229;SDS011;68663;49.122;17.544;2023-07-20T14:08:23;2.60;;;2.30;;
79229;SDS011;68663;49.122;17.544;2023-07-20T14:10:49;2.95;;;2.10;;
79229;SDS011;68663;49.122;17.544;2023-07-20T14:13:15;2.47;;;1.83;;
79229;SDS011;68663;49.122;17.544;2023-07-20T14:15:40;2.45;;;2.25;;
79229;SDS011;68663;49.122;17.544;2023-07-20T14:18:05;3.08;;;1.85;;
79229;SDS011;68663;49.122;17.544;2023-07-20T14:20:31;4.10;;;2.30;;
79229;SDS011;68663;49.122;17.544;2023-07-20T14:22:57;4.25;;;2.33;;
79229;SDS011;68663;49.122;17.544;2023-07-20T14:25:22;5.57;;;2.78;;
79229;SDS011;68663;49.122;17.544;2023-07-20T14:27:47;5.10;;;2.55;;
79229;SDS011;68663;49.122;17.544;2023-07-20T14:30:13;5.88;;;2.67;;
79229;SDS011;68663;49.122;17.544;2023-07-20T14:32:40;6.72;;;2.72;;
79229;SDS011;68663;49.122;17.544;2023-07-20T14:35:06;5.07;;;2.65;;
79229;SDS011;68663;49.122;17.544;2023-07-20T14:37:32;3.35;;;2.55;;
79229;SDS011;68663;49.122;17.544;2023-07-20T14:39:58;3.80;;;2.03;;
79229;SDS011;68663;49.122;17.544;2023-07-20T14:42:24;5.55;;;2.33;;
79229;SDS011;68663;49.122;17.544;2023-07-20T14:44:49;6.55;;;2.65;;
79229;SDS011;68663;49.122;17.544;2023-07-20T14:47:14;4.67;;;2.30;;
79229;SDS011;68663;49.122;17.544;2023-07-20T14:49:40;2.80;;;2.00;;
79229;SDS011;68663;49.122;17.544;2023-07-20T14:52:05;3.80;;;2.15;;
79229;SDS011;68663;49.122;17.544;2023-07-20T14:54:31;3.47;;;2.22;;
79229;SDS011;68663;49.122;17.544;2023-07-20T14:56:57;10.32;;;2.63;;